createdAt,value
2022-08-21T00:00:21.340Z,3.90
2022-08-21T00:02:51.323Z,4.00
2022-08-21T00:05:18.068Z,3.90
2022-08-21T00:07:44.858Z,3.50
2022-08-21T00:10:12.443Z,4.10
2022-08-21T00:12:40.219Z,4.27
2022-08-21T00:15:09.366Z,3.83
2022-08-21T00:17:36.605Z,4.37
2022-08-21T00:20:07.043Z,3.90
2022-08-21T00:22:33.586Z,4.20
2022-08-21T00:25:00.196Z,4.50
2022-08-21T00:27:26.743Z,3.70
2022-08-21T00:29:54.607Z,3.97
2022-08-21T00:32:23.609Z,4.40
2022-08-21T00:34:50.519Z,4.00
2022-08-21T00:37:17.034Z,4.37
2022-08-21T00:39:44.055Z,4.73
2022-08-21T00:42:11.287Z,3.70
2022-08-21T00:44:37.837Z,4.37
2022-08-21T00:47:04.616Z,4.30
2022-08-21T00:49:31.163Z,4.23
2022-08-21T00:51:59.915Z,4.20
2022-08-21T00:54:28.704Z,4.33
2022-08-21T00:56:59.590Z,4.60
2022-08-21T00:59:28.876Z,4.50
2022-08-21T01:01:55.624Z,4.50
2022-08-21T01:04:23.316Z,4.10
2022-08-21T01:06:50.096Z,4.17
2022-08-21T01:09:16.655Z,4.10
2022-08-21T01:11:44.187Z,3.97
2022-08-21T01:14:13.156Z,4.40
2022-08-21T01:16:44.117Z,4.57
2022-08-21T01:19:11.137Z,4.10
2022-08-21T01:21:38.813Z,4.77
2022-08-21T01:24:06.650Z,4.20
2022-08-21T01:26:35.612Z,4.07
2022-08-21T01:29:23.806Z,5.10
2022-08-21T01:31:50.422Z,3.87
2022-08-21T01:34:17.017Z,4.20
2022-08-21T01:36:45.467Z,4.33
2022-08-21T01:39:12.176Z,4.17
2022-08-21T01:41:38.698Z,4.33
2022-08-21T01:44:05.390Z,4.60
2022-08-21T01:46:31.972Z,4.60
2022-08-21T01:48:58.673Z,4.50
2022-08-21T01:51:25.283Z,4.13
2022-08-21T01:53:51.736Z,4.10
2022-08-21T01:56:19.198Z,4.60
2022-08-21T01:58:47.450Z,4.57
2022-08-21T02:01:14.847Z,4.00
2022-08-21T02:03:42.216Z,4.60
2022-08-21T02:06:14.143Z,4.57
2022-08-21T02:08:41.131Z,4.30
2022-08-21T02:11:07.952Z,4.27
2022-08-21T02:13:34.576Z,4.30
2022-08-21T02:16:01.023Z,4.60
2022-08-21T02:18:27.504Z,4.20
2022-08-21T02:20:56.072Z,4.30
2022-08-21T02:23:26.540Z,4.47
2022-08-21T02:26:00.345Z,4.20
2022-08-21T02:28:27.715Z,4.23
2022-08-21T02:30:55.258Z,4.50
2022-08-21T02:33:22.039Z,4.53
2022-08-21T02:35:49.751Z,4.00
2022-08-21T02:38:20.204Z,4.40
2022-08-21T02:40:51.105Z,4.87
2022-08-21T02:43:19.458Z,4.67
2022-08-21T02:45:46.884Z,4.30
2022-08-21T02:48:16.043Z,4.67
2022-08-21T02:50:46.185Z,4.67
2022-08-21T02:53:17.459Z,4.57
2022-08-21T02:55:48.564Z,4.30
2022-08-21T02:58:17.368Z,4.10
2022-08-21T03:00:44.736Z,4.00
2022-08-21T03:03:11.978Z,4.70
2022-08-21T03:05:38.675Z,4.20
2022-08-21T03:08:11.345Z,4.27
2022-08-21T03:10:40.717Z,4.13
2022-08-21T03:13:07.749Z,4.50
2022-08-21T03:15:34.212Z,4.40
2022-08-21T03:18:00.731Z,4.90
2022-08-21T03:20:29.466Z,4.50
2022-08-21T03:22:57.487Z,4.83
2022-08-21T03:25:39.881Z,4.47
2022-08-21T03:28:13.859Z,4.30
2022-08-21T03:30:42.926Z,4.63
2022-08-21T03:33:12.247Z,4.70
2022-08-21T03:35:43.457Z,4.57
2022-08-21T03:38:11.210Z,5.00
2022-08-21T03:40:37.843Z,4.57
2022-08-21T03:43:04.991Z,4.43
2022-08-21T03:45:32.439Z,4.93
2022-08-21T03:48:02.155Z,4.90
2022-08-21T03:50:31.669Z,5.13
2022-08-21T03:52:59.920Z,4.57
2022-08-21T03:55:27.871Z,4.53
2022-08-21T03:57:54.482Z,4.97
2022-08-21T04:00:21.544Z,4.53
2022-08-21T04:02:48.626Z,4.50
2022-08-21T04:05:27.932Z,4.20
2022-08-21T04:08:02.881Z,4.60
2022-08-21T04:10:31.489Z,4.23
2022-08-21T04:12:59.166Z,4.43
2022-08-21T04:15:27.029Z,4.47
2022-08-21T04:17:53.976Z,5.00
2022-08-21T04:20:22.524Z,4.60
2022-08-21T04:22:51.486Z,5.23
2022-08-21T04:25:20.147Z,4.73
2022-08-21T04:27:47.074Z,5.03
2022-08-21T04:30:15.787Z,4.37
2022-08-21T04:32:47.522Z,4.53
2022-08-21T04:35:17.950Z,5.00
2022-08-21T04:37:44.495Z,4.13
2022-08-21T04:40:13.408Z,4.10
2022-08-21T04:42:45.274Z,4.60
2022-08-21T04:45:26.943Z,4.87
2022-08-21T04:47:55.321Z,4.70
2022-08-21T04:50:32.556Z,4.30
2022-08-21T04:52:59.411Z,4.17
2022-08-21T04:55:28.416Z,4.53
2022-08-21T04:57:57.229Z,4.70
2022-08-21T05:00:25.518Z,4.23
2022-08-21T05:02:58.383Z,4.93
2022-08-21T05:05:25.702Z,5.23
2022-08-21T05:07:53.088Z,3.60
2022-08-21T05:10:19.663Z,4.70
2022-08-21T05:12:46.337Z,4.90
2022-08-21T05:15:13.916Z,4.23
2022-08-21T05:17:41.713Z,4.87
2022-08-21T05:20:09.592Z,4.50
2022-08-21T05:22:36.161Z,4.53
2022-08-21T05:25:03.075Z,4.07
2022-08-21T05:27:36.762Z,4.50
2022-08-21T05:30:09.989Z,3.93
2022-08-21T05:32:37.307Z,4.53
2022-08-21T05:35:08.092Z,5.03
2022-08-21T05:37:34.986Z,4.60
2022-08-21T05:40:12.760Z,4.80
2022-08-21T05:42:54.013Z,4.90
2022-08-21T05:45:41.468Z,4.23
2022-08-21T05:48:10.786Z,4.37
2022-08-21T05:50:39.126Z,4.70
2022-08-21T05:53:07.486Z,4.83
2022-08-21T05:55:34.586Z,5.13
2022-08-21T05:58:01.737Z,4.57
2022-08-21T06:00:28.398Z,5.20
2022-08-21T06:02:55.182Z,4.63
2022-08-21T06:05:37.427Z,5.10
2022-08-21T06:08:04.869Z,6.10
2022-08-21T06:10:32.206Z,4.73
2022-08-21T06:12:59.042Z,4.80
2022-08-21T06:15:27.478Z,5.03
2022-08-21T06:17:54.838Z,4.90
2022-08-21T06:20:22.083Z,4.70
2022-08-21T06:22:48.647Z,5.00
2022-08-21T06:25:15.483Z,4.32
2022-08-21T06:27:42.056Z,4.27
2022-08-21T06:30:10.054Z,3.85
2022-08-21T06:32:37.472Z,3.90
2022-08-21T06:35:06.141Z,3.97
2022-08-21T06:37:32.886Z,4.30
2022-08-21T06:39:59.626Z,4.47
2022-08-21T06:42:27.978Z,4.25
2022-08-21T06:44:54.996Z,4.03
2022-08-21T06:47:21.541Z,4.70
2022-08-21T06:49:48.190Z,4.60
2022-08-21T06:52:16.390Z,3.85
2022-08-21T06:54:42.956Z,5.63
2022-08-21T06:57:10.006Z,4.18
2022-08-21T06:59:37.069Z,4.70
2022-08-21T07:02:04.174Z,4.70
2022-08-21T07:04:31.057Z,4.20
2022-08-21T07:06:59.499Z,4.30
2022-08-21T07:09:26.145Z,4.38
2022-08-21T07:11:55.148Z,4.40
2022-08-21T07:14:22.054Z,3.85
2022-08-21T07:16:50.044Z,4.50
2022-08-21T07:19:16.592Z,3.90
2022-08-21T07:21:43.285Z,4.03
2022-08-21T07:24:12.903Z,3.78
2022-08-21T07:26:39.755Z,3.70
2022-08-21T07:29:06.560Z,4.18
2022-08-21T07:31:33.337Z,8.77
2022-08-21T07:33:59.967Z,3.40
2022-08-21T07:36:26.724Z,4.07
2022-08-21T07:38:53.509Z,3.88
2022-08-21T07:41:23.132Z,4.15
2022-08-21T07:43:52.703Z,3.70
2022-08-21T07:46:19.821Z,3.80
2022-08-21T07:48:46.442Z,3.83
2022-08-21T07:51:15.367Z,3.55
2022-08-21T07:53:42.124Z,3.97
2022-08-21T07:56:09.653Z,3.47
2022-08-21T07:58:36.261Z,3.60
2022-08-21T08:01:02.898Z,4.05
2022-08-21T08:03:29.640Z,3.38
2022-08-21T08:05:59.453Z,4.18
2022-08-21T08:08:27.320Z,3.63
2022-08-21T08:10:54.867Z,4.03
2022-08-21T08:13:21.632Z,3.88
2022-08-21T08:15:48.300Z,4.38
2022-08-21T08:18:14.879Z,4.03
2022-08-21T08:20:42.208Z,3.92
2022-08-21T08:23:12.104Z,4.03
2022-08-21T08:25:38.855Z,4.70
2022-08-21T08:28:16.506Z,4.10
2022-08-21T08:30:44.950Z,4.20
2022-08-21T08:33:11.625Z,3.80
2022-08-21T08:35:39.026Z,4.13
2022-08-21T08:38:06.755Z,3.60
2022-08-21T08:40:54.831Z,3.63
2022-08-21T08:43:21.503Z,3.50
2022-08-21T08:45:51.498Z,3.17
2022-08-21T08:48:32.946Z,4.07
2022-08-21T08:51:01.005Z,4.03
2022-08-21T08:53:36.479Z,3.83
2022-08-21T08:56:04.959Z,4.03
2022-08-21T08:58:35.278Z,4.00
2022-08-21T09:01:02.841Z,3.58
2022-08-21T09:03:29.692Z,3.70
2022-08-21T09:06:19.952Z,3.90
2022-08-21T09:08:55.470Z,3.95
2022-08-21T09:11:27.971Z,3.88
2022-08-21T09:14:09.357Z,3.78
2022-08-21T09:17:06.010Z,4.20
2022-08-21T09:19:44.714Z,4.13
2022-08-21T09:22:40.544Z,4.00
2022-08-21T09:25:29.388Z,3.78
2022-08-21T09:27:55.969Z,4.15
2022-08-21T09:30:28.927Z,3.90
2022-08-21T09:32:59.070Z,3.72
2022-08-21T09:35:26.906Z,3.97
2022-08-21T09:38:03.997Z,3.58
2022-08-21T09:40:36.269Z,3.60
2022-08-21T09:43:13.609Z,3.70
2022-08-21T09:45:42.861Z,3.30
2022-08-21T09:48:15.063Z,3.78
2022-08-21T09:50:43.353Z,4.28
2022-08-21T09:53:19.106Z,3.35
2022-08-21T09:56:09.687Z,3.35
2022-08-21T09:58:38.328Z,3.50
2022-08-21T10:01:07.154Z,3.13
2022-08-21T10:03:33.894Z,3.63
2022-08-21T10:06:09.147Z,3.47
2022-08-21T10:08:40.921Z,3.78
2022-08-21T10:11:11.017Z,3.63
2022-08-21T10:14:01.558Z,3.53
2022-08-21T10:16:48.015Z,3.80
2022-08-21T10:19:17.514Z,3.60
2022-08-21T10:21:59.867Z,3.50
2022-08-21T10:24:33.712Z,3.60
2022-08-21T10:27:24.137Z,3.13
2022-08-21T10:29:58.008Z,3.60
2022-08-21T10:32:34.673Z,3.58
2022-08-21T10:35:09.664Z,3.75
2022-08-21T10:37:44.903Z,3.65
2022-08-21T10:40:26.627Z,3.57
2022-08-21T10:43:36.318Z,3.50
2022-08-21T10:46:12.227Z,3.22
2022-08-21T10:48:44.858Z,3.27
2022-08-21T10:51:29.458Z,3.42
2022-08-21T10:54:01.185Z,2.92
2022-08-21T10:56:33.016Z,3.33
2022-08-21T10:59:40.675Z,3.28
2022-08-21T11:02:19.385Z,3.60
2022-08-21T11:05:12.476Z,3.20
2022-08-21T11:07:47.245Z,3.28
2022-08-21T11:10:59.338Z,3.42
2022-08-21T11:13:45.513Z,3.03
2022-08-21T11:16:33.578Z,3.13
2022-08-21T11:19:09.115Z,3.38
2022-08-21T11:21:40.846Z,3.17
2022-08-21T11:24:32.476Z,2.90
2022-08-21T11:27:16.169Z,2.70
2022-08-21T11:29:45.360Z,3.25
2022-08-21T11:33:03.317Z,2.90
2022-08-21T11:35:49.532Z,3.30
2022-08-21T11:38:35.738Z,3.03
2022-08-21T11:41:24.242Z,3.55
2022-08-21T11:43:57.244Z,2.93
2022-08-21T11:46:32.213Z,2.93
2022-08-21T11:49:25.473Z,3.17
2022-08-21T11:51:59.036Z,4.03
2022-08-21T11:54:46.911Z,3.00
2022-08-21T11:57:21.841Z,2.97
2022-08-21T12:00:12.655Z,2.95
2022-08-21T12:02:44.481Z,2.90
2022-08-21T12:05:22.769Z,2.70
2022-08-21T12:07:49.291Z,2.80
2022-08-21T12:10:21.975Z,2.40
2022-08-21T12:12:49.289Z,2.60
2022-08-21T12:15:21.876Z,2.30
2022-08-21T12:18:06.670Z,3.00
2022-08-21T12:20:38.417Z,2.90
2022-08-21T12:23:17.180Z,2.70
2022-08-21T12:26:02.798Z,2.60
2022-08-21T12:28:31.205Z,2.65
2022-08-21T12:30:59.006Z,2.67
2022-08-21T12:33:32.078Z,2.33
2022-08-21T12:36:17.280Z,2.45
2022-08-21T12:38:58.887Z,2.63
2022-08-21T12:41:34.310Z,2.15
2022-08-21T12:44:05.607Z,2.88
2022-08-21T12:46:46.773Z,2.60
2022-08-21T12:49:16.775Z,3.05
2022-08-21T12:52:17.825Z,2.30
2022-08-21T12:54:45.541Z,2.25
2022-08-21T12:57:24.305Z,2.55
2022-08-21T12:59:59.873Z,2.50
2022-08-21T13:02:36.120Z,2.35
2022-08-21T13:05:07.053Z,2.63
2022-08-21T13:07:36.217Z,2.45
2022-08-21T13:10:06.999Z,2.63
2022-08-21T13:12:34.279Z,2.60
2022-08-21T13:15:04.297Z,2.90
2022-08-21T13:17:38.647Z,2.20
2022-08-21T13:20:23.657Z,2.53
2022-08-21T13:22:53.257Z,2.55
2022-08-21T13:25:22.282Z,3.28
2022-08-21T13:28:10.235Z,3.95
2022-08-21T13:30:40.779Z,2.53
2022-08-21T13:33:12.875Z,2.50
2022-08-21T13:35:53.717Z,2.58
2022-08-21T13:38:21.871Z,2.55
2022-08-21T13:40:58.183Z,2.47
2022-08-21T13:43:34.251Z,2.67
2022-08-21T13:46:01.652Z,3.00
2022-08-21T13:48:31.246Z,2.90
2022-08-21T13:50:59.242Z,2.50
2022-08-21T13:53:36.276Z,2.47
2022-08-21T13:56:05.644Z,2.80
2022-08-21T13:58:43.590Z,2.78
2022-08-21T14:01:20.824Z,2.70
2022-08-21T14:03:49.926Z,3.03
2022-08-21T14:06:24.209Z,2.67
2022-08-21T14:08:54.239Z,2.78
2022-08-21T14:11:21.689Z,2.42
2022-08-21T14:13:58.613Z,2.65
2022-08-21T14:16:28.563Z,2.80
2022-08-21T14:19:32.414Z,2.53
2022-08-21T14:21:59.044Z,2.83
2022-08-21T14:24:28.316Z,2.85
2022-08-21T14:27:03.066Z,2.80
2022-08-21T14:29:38.504Z,2.47
2022-08-21T14:32:26.009Z,2.75
2022-08-21T14:34:54.883Z,2.50
2022-08-21T14:37:22.428Z,2.50
2022-08-21T14:39:49.355Z,2.80
2022-08-21T14:42:16.125Z,2.75
2022-08-21T14:44:42.711Z,2.97
2022-08-21T14:47:10.342Z,2.55
2022-08-21T14:49:37.079Z,2.40
2022-08-21T14:52:03.941Z,2.97
2022-08-21T14:54:32.517Z,2.38
2022-08-21T14:57:10.860Z,2.60
2022-08-21T14:59:38.630Z,2.57
2022-08-21T15:02:06.386Z,3.00
2022-08-21T15:04:34.017Z,2.63
2022-08-21T15:07:00.720Z,2.90
2022-08-21T15:09:27.505Z,2.53
2022-08-21T15:11:58.988Z,2.70
2022-08-21T15:14:27.839Z,2.50
2022-08-21T15:16:54.524Z,2.33
2022-08-21T15:19:21.351Z,2.97
2022-08-21T15:21:48.355Z,2.70
2022-08-21T15:24:15.111Z,2.60
2022-08-21T15:26:41.849Z,2.47
2022-08-21T15:29:09.214Z,2.50
2022-08-21T15:31:37.621Z,2.42
2022-08-21T15:34:04.258Z,2.65
2022-08-21T15:36:30.788Z,2.60
2022-08-21T15:38:59.169Z,2.15
2022-08-21T15:41:25.891Z,2.07
2022-08-21T15:43:54.044Z,2.50
2022-08-21T15:46:21.345Z,2.40
2022-08-21T15:48:48.246Z,2.15
2022-08-21T15:51:16.749Z,2.60
2022-08-21T15:53:43.604Z,2.20
2022-08-21T15:56:19.107Z,2.73
2022-08-21T15:58:45.747Z,2.83
2022-08-21T16:01:12.402Z,2.60
2022-08-21T16:03:39.647Z,2.50
2022-08-21T16:06:06.351Z,2.33
2022-08-21T16:08:33.126Z,2.60
2022-08-21T16:11:00.907Z,2.42
2022-08-21T16:13:30.396Z,2.70
2022-08-21T16:15:57.683Z,2.43
2022-08-21T16:18:24.416Z,2.67
2022-08-21T16:20:51.147Z,2.17
2022-08-21T16:23:17.812Z,2.50
2022-08-21T16:25:44.893Z,2.57
2022-08-21T16:28:14.743Z,2.80
2022-08-21T16:30:42.091Z,3.07
2022-08-21T16:33:14.368Z,2.70
2022-08-21T16:35:41.498Z,3.00
2022-08-21T16:38:08.301Z,3.40
2022-08-21T16:40:36.092Z,3.50
2022-08-21T16:43:02.882Z,3.60
2022-08-21T16:45:33.036Z,3.37
2022-08-21T16:48:00.340Z,3.03
2022-08-21T16:50:26.865Z,3.50
2022-08-21T16:52:54.346Z,3.40
2022-08-21T16:55:20.875Z,3.67
2022-08-21T16:57:47.466Z,3.57
2022-08-21T17:00:14.622Z,3.40
2022-08-21T17:02:45.688Z,3.27
2022-08-21T17:05:14.162Z,2.97
2022-08-21T17:07:41.636Z,3.67
2022-08-21T17:10:09.845Z,3.57
2022-08-21T17:12:36.596Z,3.30
2022-08-21T17:15:09.846Z,3.37
2022-08-21T17:17:36.646Z,3.50
2022-08-21T17:20:04.497Z,3.50
2022-08-21T17:22:31.447Z,3.77
2022-08-21T17:25:01.858Z,3.57
2022-08-21T17:27:29.133Z,3.77
2022-08-21T17:29:57.379Z,3.80
2022-08-21T17:32:24.584Z,3.90
2022-08-21T17:34:52.078Z,3.60
2022-08-21T17:37:19.022Z,3.87
2022-08-21T17:39:46.029Z,3.83
2022-08-21T17:42:13.830Z,3.67
2022-08-21T17:44:45.462Z,4.60
2022-08-21T17:47:13.584Z,5.17
2022-08-21T17:49:40.771Z,3.83
2022-08-21T17:52:08.023Z,3.83
2022-08-21T17:54:36.514Z,3.80
2022-08-21T17:57:03.999Z,4.10
2022-08-21T17:59:30.623Z,4.40
2022-08-21T18:02:01.475Z,5.30
2022-08-21T18:04:32.621Z,6.05
2022-08-21T18:06:59.229Z,5.27
2022-08-21T18:09:29.034Z,5.33
2022-08-21T18:11:59.623Z,5.13
2022-08-21T18:14:29.606Z,4.83
2022-08-21T18:16:57.464Z,5.33
2022-08-21T18:19:26.157Z,4.13
2022-08-21T18:21:58.173Z,4.72
2022-08-21T18:24:27.541Z,5.20
2022-08-21T18:26:54.631Z,4.60
2022-08-21T18:29:22.602Z,4.50
2022-08-21T18:31:49.571Z,4.60
2022-08-21T18:34:35.062Z,4.93
2022-08-21T18:37:02.518Z,4.57
2022-08-21T18:39:38.054Z,4.13
2022-08-21T18:42:09.632Z,4.57
2022-08-21T18:44:36.376Z,4.43
2022-08-21T18:47:08.067Z,4.47
2022-08-21T18:49:34.845Z,4.67
2022-08-21T18:52:01.420Z,3.90
2022-08-21T18:54:30.019Z,4.87
2022-08-21T18:56:57.428Z,4.50
2022-08-21T18:59:26.856Z,4.57
2022-08-21T19:01:53.521Z,4.63
2022-08-21T19:04:42.948Z,4.33
2022-08-21T19:07:06.927Z,4.93
2022-08-21T19:09:33.688Z,4.70
2022-08-21T19:12:00.418Z,5.40
2022-08-21T19:14:28.466Z,4.77
2022-08-21T19:16:55.531Z,4.67
2022-08-21T19:19:22.181Z,4.53
2022-08-21T19:21:49.495Z,4.17
2022-08-21T19:24:17.875Z,4.60
2022-08-21T19:26:45.118Z,4.50
2022-08-21T19:29:12.578Z,5.00
2022-08-21T19:31:44.155Z,5.63
2022-08-21T19:34:17.206Z,4.50
2022-08-21T19:36:43.868Z,4.27
2022-08-21T19:39:11.250Z,4.67
2022-08-21T19:41:42.427Z,4.63
2022-08-21T19:44:13.592Z,4.20
2022-08-21T19:46:43.491Z,4.10
2022-08-21T19:49:13.547Z,4.67
2022-08-21T19:51:40.672Z,4.67
2022-08-21T19:54:12.273Z,4.83
2022-08-21T19:56:38.784Z,4.20
2022-08-21T19:59:09.319Z,4.30
2022-08-21T20:01:36.752Z,4.90
2022-08-21T20:04:10.744Z,4.40
2022-08-21T20:06:46.149Z,4.97
2022-08-21T20:09:14.502Z,4.93
2022-08-21T20:11:52.668Z,4.83
2022-08-21T20:14:22.883Z,4.77
2022-08-21T20:16:52.627Z,5.07
2022-08-21T20:19:20.322Z,4.90
2022-08-21T20:21:46.940Z,4.87
2022-08-21T20:24:15.406Z,5.37
2022-08-21T20:26:48.714Z,4.90
2022-08-21T20:29:16.684Z,4.63
2022-08-21T20:31:50.754Z,4.73
2022-08-21T20:34:17.318Z,4.80
2022-08-21T20:36:44.688Z,4.70
2022-08-21T20:39:14.535Z,4.63
2022-08-21T20:41:41.446Z,5.30
2022-08-21T20:44:12.654Z,4.87
2022-08-21T20:46:39.815Z,4.97
2022-08-21T20:49:09.179Z,4.70
2022-08-21T20:51:43.167Z,4.60
2022-08-21T20:54:51.161Z,4.00
2022-08-21T20:57:30.654Z,4.80
2022-08-21T21:00:01.704Z,5.00
2022-08-21T21:02:57.856Z,4.07
2022-08-21T21:05:38.931Z,4.20
2022-08-21T21:08:16.266Z,4.47
2022-08-21T21:10:59.982Z,4.60
2022-08-21T21:13:30.959Z,4.40
2022-08-21T21:19:06.999Z,4.50
2022-08-21T21:24:51.538Z,4.43
2022-08-21T21:27:49.151Z,5.30
2022-08-21T21:30:23.530Z,5.73
2022-08-21T21:32:51.053Z,5.40
2022-08-21T21:35:32.321Z,5.07
2022-08-21T21:38:03.122Z,5.63
2022-08-21T21:40:54.242Z,5.60
2022-08-21T21:44:12.713Z,5.60
2022-08-21T21:47:01.796Z,5.47
2022-08-21T21:49:39.677Z,4.80
2022-08-21T21:52:27.696Z,4.90
2022-08-21T21:54:59.828Z,4.80
2022-08-21T21:57:55.106Z,5.43
2022-08-21T22:00:27.116Z,4.93
2022-08-21T22:03:19.401Z,4.97
2022-08-21T22:05:52.137Z,5.50
2022-08-21T22:08:30.199Z,5.73
2022-08-21T22:11:08.862Z,5.33
2022-08-21T22:13:58.335Z,5.50
2022-08-21T22:16:25.048Z,5.57
2022-08-21T22:18:57.132Z,5.53
2022-08-21T22:21:36.837Z,4.93
2022-08-21T22:24:13.076Z,5.27
2022-08-21T22:26:44.209Z,5.97
2022-08-21T22:29:16.677Z,5.50
2022-08-21T22:31:46.716Z,5.17
2022-08-21T22:34:21.765Z,5.40
2022-08-21T22:36:59.507Z,5.33
2022-08-21T22:39:48.038Z,5.23
2022-08-21T22:42:25.195Z,4.93
2022-08-21T22:44:57.113Z,5.60
2022-08-21T22:47:45.028Z,6.00
2022-08-21T22:50:25.697Z,5.43
2022-08-21T22:52:54.261Z,5.97
2022-08-21T22:55:37.178Z,6.07
2022-08-21T22:58:17.768Z,5.77
2022-08-21T23:01:06.425Z,6.53
2022-08-21T23:03:52.312Z,5.87
2022-08-21T23:06:29.987Z,5.17
2022-08-21T23:09:00.389Z,5.27
2022-08-21T23:11:42.703Z,5.97
2022-08-21T23:14:14.252Z,5.80
2022-08-21T23:16:56.827Z,6.43
2022-08-21T23:19:38.432Z,6.57
2022-08-21T23:22:28.759Z,6.80
2022-08-21T23:25:35.356Z,6.40
2022-08-21T23:28:21.938Z,6.70
2022-08-21T23:31:10.651Z,7.47
2022-08-21T23:33:53.904Z,7.00
2022-08-21T23:36:51.213Z,6.87
2022-08-21T23:39:42.077Z,6.87
2022-08-21T23:42:26.987Z,7.00
2022-08-21T23:45:22.793Z,8.10
2022-08-21T23:48:21.498Z,7.80
2022-08-21T23:50:55.842Z,7.87
2022-08-21T23:53:38.863Z,8.33
2022-08-21T23:56:26.661Z,7.33
2022-08-21T23:58:59.860Z,8.17
